sensor_id;sensor_type;location;lat;lon;timestamp;P1;durP1;ratioP1;P2;durP2;ratioP2
773;SDS011;370;48.810;9.150;2023-12-14T00:01:43;2.90;;;0.73;;
773;SDS011;370;48.810;9.150;2023-12-14T00:04:11;0.90;;;0.80;;
773;SDS011;370;48.810;9.150;2023-12-14T00:06:38;2.15;;;0.98;;
773;SDS011;370;48.810;9.150;2023-12-14T00:09:06;4.40;;;1.02;;
773;SDS011;370;48.810;9.150;2023-12-14T00:11:34;1.20;;;1.10;;
773;SDS011;370;48.810;9.150;2023-12-14T00:14:04;0.88;;;0.77;;
773;SDS011;370;48.810;9.150;2023-12-14T00:16:30;0.70;;;0.70;;
773;SDS011;370;48.810;9.150;2023-12-14T00:18:58;2.15;;;0.80;;
773;SDS011;370;48.810;9.150;2023-12-14T00:21:24;0.80;;;0.70;;
773;SDS011;370;48.810;9.150;2023-12-14T00:23:51;1.25;;;0.70;;
773;SDS011;370;48.810;9.150;2023-12-14T00:26:19;0.70;;;0.60;;
773;SDS011;370;48.810;9.150;2023-12-14T00:28:46;1.50;;;1.20;;
773;SDS011;370;48.810;9.150;2023-12-14T00:31:13;1.00;;;0.63;;
773;SDS011;370;48.810;9.150;2023-12-14T00:33:40;0.50;;;0.50;;
773;SDS011;370;48.810;9.150;2023-12-14T00:36:07;0.90;;;0.70;;
773;SDS011;370;48.810;9.150;2023-12-14T00:38:34;0.60;;;0.60;;
773;SDS011;370;48.810;9.150;2023-12-14T00:41:00;0.85;;;0.75;;
773;SDS011;370;48.810;9.150;2023-12-14T00:43:29;1.00;;;0.93;;
773;SDS011;370;48.810;9.150;2023-12-14T00:45:55;3.22;;;1.38;;
773;SDS011;370;48.810;9.150;2023-12-14T00:48:22;0.95;;;0.70;;
773;SDS011;370;48.810;9.150;2023-12-14T00:50:49;1.80;;;0.90;;
773;SDS011;370;48.810;9.150;2023-12-14T00:53:15;1.15;;;0.90;;
773;SDS011;370;48.810;9.150;2023-12-14T00:55:42;0.77;;;0.73;;
773;SDS011;370;48.810;9.150;2023-12-14T00:58:10;5.60;;;0.63;;
773;SDS011;370;48.810;9.150;2023-12-14T01:00:40;0.63;;;0.52;;
773;SDS011;370;48.810;9.150;2023-12-14T01:03:07;1.98;;;0.80;;
773;SDS011;370;48.810;9.150;2023-12-14T01:05:34;0.70;;;0.50;;
773;SDS011;370;48.810;9.150;2023-12-14T01:08:01;1.95;;;0.55;;
773;SDS011;370;48.810;9.150;2023-12-14T01:10:27;2.95;;;0.80;;
773;SDS011;370;48.810;9.150;2023-12-14T01:12:54;1.25;;;0.57;;
773;SDS011;370;48.810;9.150;2023-12-14T01:15:21;1.40;;;0.93;;
773;SDS011;370;48.810;9.150;2023-12-14T01:17:49;2.30;;;0.90;;
773;SDS011;370;48.810;9.150;2023-12-14T01:20:16;0.90;;;0.80;;
773;SDS011;370;48.810;9.150;2023-12-14T01:22:42;1.23;;;0.90;;
773;SDS011;370;48.810;9.150;2023-12-14T01:25:09;0.60;;;0.50;;
773;SDS011;370;48.810;9.150;2023-12-14T01:27:36;5.50;;;0.85;;
773;SDS011;370;48.810;9.150;2023-12-14T01:30:03;12.98;;;3.90;;
773;SDS011;370;48.810;9.150;2023-12-14T01:32:30;8.02;;;1.98;;
773;SDS011;370;48.810;9.150;2023-12-14T01:34:59;3.65;;;1.77;;
773;SDS011;370;48.810;9.150;2023-12-14T01:37:25;1.30;;;0.80;;
773;SDS011;370;48.810;9.150;2023-12-14T01:39:52;0.93;;;0.60;;
773;SDS011;370;48.810;9.150;2023-12-14T01:42:19;0.60;;;0.50;;
773;SDS011;370;48.810;9.150;2023-12-14T01:44:46;0.95;;;0.70;;
773;SDS011;370;48.810;9.150;2023-12-14T01:47:12;0.70;;;0.70;;
773;SDS011;370;48.810;9.150;2023-12-14T01:49:39;0.63;;;0.60;;
773;SDS011;370;48.810;9.150;2023-12-14T01:52:08;0.45;;;0.40;;
773;SDS011;370;48.810;9.150;2023-12-14T01:54:35;0.60;;;0.50;;
773;SDS011;370;48.810;9.150;2023-12-14T01:57:02;0.70;;;0.70;;
773;SDS011;370;48.810;9.150;2023-12-14T01:59:29;1.25;;;0.80;;
773;SDS011;370;48.810;9.150;2023-12-14T02:01:56;3.22;;;0.77;;
773;SDS011;370;48.810;9.150;2023-12-14T02:04:24;0.90;;;0.80;;
773;SDS011;370;48.810;9.150;2023-12-14T02:06:52;0.93;;;0.82;;
773;SDS011;370;48.810;9.150;2023-12-14T02:09:20;0.50;;;0.40;;
773;SDS011;370;48.810;9.150;2023-12-14T02:15:09;2.92;;;1.25;;
773;SDS011;370;48.810;9.150;2023-12-14T02:17:36;0.50;;;0.50;;
773;SDS011;370;48.810;9.150;2023-12-14T02:20:03;0.70;;;0.60;;
773;SDS011;370;48.810;9.150;2023-12-14T02:22:35;0.50;;;0.40;;
773;SDS011;370;48.810;9.150;2023-12-14T02:25:14;0.55;;;0.43;;
773;SDS011;370;48.810;9.150;2023-12-14T02:27:40;0.50;;;0.50;;
773;SDS011;370;48.810;9.150;2023-12-14T02:30:07;0.55;;;0.50;;
773;SDS011;370;48.810;9.150;2023-12-14T02:32:34;0.60;;;0.57;;
773;SDS011;370;48.810;9.150;2023-12-14T02:35:01;0.70;;;0.50;;
773;SDS011;370;48.810;9.150;2023-12-14T02:37:28;3.05;;;0.60;;
773;SDS011;370;48.810;9.150;2023-12-14T02:39:56;2.85;;;0.68;;
773;SDS011;370;48.810;9.150;2023-12-14T02:42:24;0.40;;;0.40;;
773;SDS011;370;48.810;9.150;2023-12-14T02:44:50;0.70;;;0.60;;
773;SDS011;370;48.810;9.150;2023-12-14T02:47:18;1.67;;;0.65;;
773;SDS011;370;48.810;9.150;2023-12-14T02:49:45;1.17;;;1.08;;
773;SDS011;370;48.810;9.150;2023-12-14T02:52:12;0.50;;;0.50;;
773;SDS011;370;48.810;9.150;2023-12-14T02:54:39;1.08;;;0.70;;
773;SDS011;370;48.810;9.150;2023-12-14T02:57:07;1.58;;;0.50;;
773;SDS011;370;48.810;9.150;2023-12-14T02:59:34;0.40;;;0.40;;
773;SDS011;370;48.810;9.150;2023-12-14T03:02:00;0.68;;;0.63;;
773;SDS011;370;48.810;9.150;2023-12-14T03:04:27;2.72;;;0.60;;
773;SDS011;370;48.810;9.150;2023-12-14T03:06:54;0.60;;;0.55;;
773;SDS011;370;48.810;9.150;2023-12-14T03:09:21;8.57;;;0.60;;
773;SDS011;370;48.810;9.150;2023-12-14T03:11:47;0.93;;;0.50;;
773;SDS011;370;48.810;9.150;2023-12-14T03:14:16;1.20;;;0.70;;
773;SDS011;370;48.810;9.150;2023-12-14T03:16:42;2.08;;;0.98;;
773;SDS011;370;48.810;9.150;2023-12-14T03:19:09;0.40;;;0.40;;
773;SDS011;370;48.810;9.150;2023-12-14T03:21:36;1.05;;;0.50;;
773;SDS011;370;48.810;9.150;2023-12-14T03:24:02;0.40;;;0.40;;
773;SDS011;370;48.810;9.150;2023-12-14T03:26:29;0.85;;;0.60;;
773;SDS011;370;48.810;9.150;2023-12-14T03:28:56;0.80;;;0.80;;
773;SDS011;370;48.810;9.150;2023-12-14T03:31:24;1.17;;;0.85;;
773;SDS011;370;48.810;9.150;2023-12-14T03:33:51;0.80;;;0.60;;
773;SDS011;370;48.810;9.150;2023-12-14T03:36:18;1.20;;;0.50;;
773;SDS011;370;48.810;9.150;2023-12-14T03:38:44;5.70;;;0.52;;
773;SDS011;370;48.810;9.150;2023-12-14T03:41:12;0.60;;;0.55;;
773;SDS011;370;48.810;9.150;2023-12-14T03:43:38;1.33;;;0.77;;
773;SDS011;370;48.810;9.150;2023-12-14T03:46:05;0.82;;;0.50;;
773;SDS011;370;48.810;9.150;2023-12-14T03:48:33;4.45;;;0.77;;
773;SDS011;370;48.810;9.150;2023-12-14T03:51:01;2.28;;;0.60;;
773;SDS011;370;48.810;9.150;2023-12-14T03:53:29;0.70;;;0.60;;
773;SDS011;370;48.810;9.150;2023-12-14T03:55:56;0.38;;;0.35;;
773;SDS011;370;48.810;9.150;2023-12-14T03:58:23;0.57;;;0.50;;
773;SDS011;370;48.810;9.150;2023-12-14T04:00:50;1.30;;;0.60;;
773;SDS011;370;48.810;9.150;2023-12-14T04:03:17;2.40;;;0.57;;
773;SDS011;370;48.810;9.150;2023-12-14T04:05:45;0.40;;;0.40;;
773;SDS011;370;48.810;9.150;2023-12-14T04:08:12;0.52;;;0.47;;
773;SDS011;370;48.810;9.150;2023-12-14T04:10:38;0.60;;;0.50;;
773;SDS011;370;48.810;9.150;2023-12-14T04:13:05;0.70;;;0.60;;
773;SDS011;370;48.810;9.150;2023-12-14T04:15:32;0.50;;;0.43;;
773;SDS011;370;48.810;9.150;2023-12-14T04:17:58;0.68;;;0.65;;
773;SDS011;370;48.810;9.150;2023-12-14T04:20:25;1.00;;;0.95;;
773;SDS011;370;48.810;9.150;2023-12-14T04:22:53;1.30;;;0.93;;
773;SDS011;370;48.810;9.150;2023-12-14T04:25:21;4.22;;;1.58;;
773;SDS011;370;48.810;9.150;2023-12-14T04:27:47;4.10;;;1.77;;
773;SDS011;370;48.810;9.150;2023-12-14T04:30:14;1.60;;;0.70;;
773;SDS011;370;48.810;9.150;2023-12-14T04:32:41;0.77;;;0.60;;
773;SDS011;370;48.810;9.150;2023-12-14T04:35:07;0.75;;;0.65;;
773;SDS011;370;48.810;9.150;2023-12-14T04:37:34;0.90;;;0.80;;
773;SDS011;370;48.810;9.150;2023-12-14T04:40:03;0.70;;;0.60;;
773;SDS011;370;48.810;9.150;2023-12-14T04:42:30;0.93;;;0.60;;
773;SDS011;370;48.810;9.150;2023-12-14T04:44:57;0.90;;;0.90;;
773;SDS011;370;48.810;9.150;2023-12-14T04:47:24;0.73;;;0.68;;
773;SDS011;370;48.810;9.150;2023-12-14T04:49:50;0.65;;;0.57;;
773;SDS011;370;48.810;9.150;2023-12-14T04:52:18;0.60;;;0.50;;
773;SDS011;370;48.810;9.150;2023-12-14T04:54:44;0.98;;;0.60;;
773;SDS011;370;48.810;9.150;2023-12-14T04:57:12;0.90;;;0.70;;
773;SDS011;370;48.810;9.150;2023-12-14T04:59:40;2.65;;;1.23;;
773;SDS011;370;48.810;9.150;2023-12-14T05:02:07;0.80;;;0.70;;
773;SDS011;370;48.810;9.150;2023-12-14T05:04:34;0.63;;;0.60;;
773;SDS011;370;48.810;9.150;2023-12-14T05:07:01;0.80;;;0.70;;
773;SDS011;370;48.810;9.150;2023-12-14T05:09:27;0.80;;;0.63;;
773;SDS011;370;48.810;9.150;2023-12-14T05:11:54;1.85;;;0.90;;
773;SDS011;370;48.810;9.150;2023-12-14T05:14:22;0.60;;;0.55;;
773;SDS011;370;48.810;9.150;2023-12-14T05:16:49;0.60;;;0.55;;
773;SDS011;370;48.810;9.150;2023-12-14T05:19:16;1.17;;;0.93;;
773;SDS011;370;48.810;9.150;2023-12-14T05:21:43;0.60;;;0.50;;
773;SDS011;370;48.810;9.150;2023-12-14T05:24:10;0.77;;;0.70;;
773;SDS011;370;48.810;9.150;2023-12-14T05:26:37;0.55;;;0.50;;
773;SDS011;370;48.810;9.150;2023-12-14T05:29:03;0.70;;;0.63;;
773;SDS011;370;48.810;9.150;2023-12-14T05:31:31;0.50;;;0.50;;
773;SDS011;370;48.810;9.150;2023-12-14T05:33:58;0.85;;;0.80;;
773;SDS011;370;48.810;9.150;2023-12-14T05:36:25;0.93;;;0.85;;
773;SDS011;370;48.810;9.150;2023-12-14T05:38:52;1.40;;;0.80;;
773;SDS011;370;48.810;9.150;2023-12-14T05:41:18;0.88;;;0.75;;
773;SDS011;370;48.810;9.150;2023-12-14T05:43:45;2.15;;;1.25;;
773;SDS011;370;48.810;9.150;2023-12-14T05:46:19;1.55;;;1.23;;
773;SDS011;370;48.810;9.150;2023-12-14T05:48:48;2.72;;;1.20;;
773;SDS011;370;48.810;9.150;2023-12-14T05:51:25;1.70;;;1.00;;
773;SDS011;370;48.810;9.150;2023-12-14T05:53:53;1.38;;;1.27;;
773;SDS011;370;48.810;9.150;2023-12-14T05:56:20;0.98;;;0.88;;
773;SDS011;370;48.810;9.150;2023-12-14T05:58:46;1.17;;;0.90;;
773;SDS011;370;48.810;9.150;2023-12-14T06:01:13;1.52;;;1.17;;
773;SDS011;370;48.810;9.150;2023-12-14T06:03:42;1.23;;;1.13;;
773;SDS011;370;48.810;9.150;2023-12-14T06:06:10;1.05;;;0.88;;
773;SDS011;370;48.810;9.150;2023-12-14T06:08:38;1.40;;;0.90;;
773;SDS011;370;48.810;9.150;2023-12-14T06:11:05;1.20;;;0.90;;
773;SDS011;370;48.810;9.150;2023-12-14T06:13:32;2.55;;;1.00;;
773;SDS011;370;48.810;9.150;2023-12-14T06:15:58;1.63;;;1.08;;
773;SDS011;370;48.810;9.150;2023-12-14T06:18:25;2.05;;;1.10;;
773;SDS011;370;48.810;9.150;2023-12-14T06:20:52;3.95;;;1.23;;
773;SDS011;370;48.810;9.150;2023-12-14T06:23:20;1.95;;;1.20;;
773;SDS011;370;48.810;9.150;2023-12-14T06:25:46;1.80;;;1.40;;
773;SDS011;370;48.810;9.150;2023-12-14T06:28:13;1.17;;;1.10;;
773;SDS011;370;48.810;9.150;2023-12-14T06:30:40;1.65;;;1.50;;
773;SDS011;370;48.810;9.150;2023-12-14T06:33:06;2.55;;;1.45;;
773;SDS011;370;48.810;9.150;2023-12-14T06:35:33;3.40;;;1.38;;
773;SDS011;370;48.810;9.150;2023-12-14T06:38:00;2.30;;;1.35;;
773;SDS011;370;48.810;9.150;2023-12-14T06:40:28;1.50;;;1.23;;
773;SDS011;370;48.810;9.150;2023-12-14T06:42:54;1.17;;;1.00;;
773;SDS011;370;48.810;9.150;2023-12-14T06:45:21;4.95;;;2.20;;
773;SDS011;370;48.810;9.150;2023-12-14T06:47:48;2.53;;;1.30;;
773;SDS011;370;48.810;9.150;2023-12-14T06:50:15;0.85;;;0.80;;
773;SDS011;370;48.810;9.150;2023-12-14T06:52:41;1.38;;;1.30;;
773;SDS011;370;48.810;9.150;2023-12-14T06:55:08;4.10;;;1.52;;
773;SDS011;370;48.810;9.150;2023-12-14T06:57:37;3.15;;;1.20;;
773;SDS011;370;48.810;9.150;2023-12-14T07:00:04;0.98;;;0.88;;
773;SDS011;370;48.810;9.150;2023-12-14T07:02:31;2.33;;;1.10;;
773;SDS011;370;48.810;9.150;2023-12-14T07:04:58;4.00;;;2.13;;
773;SDS011;370;48.810;9.150;2023-12-14T07:07:25;3.63;;;1.67;;
773;SDS011;370;48.810;9.150;2023-12-14T07:09:51;10.38;;;1.70;;
773;SDS011;370;48.810;9.150;2023-12-14T07:12:18;1.52;;;1.42;;
773;SDS011;370;48.810;9.150;2023-12-14T07:14:46;8.07;;;1.80;;
773;SDS011;370;48.810;9.150;2023-12-14T07:17:13;1.48;;;1.38;;
773;SDS011;370;48.810;9.150;2023-12-14T07:19:39;2.22;;;1.60;;
773;SDS011;370;48.810;9.150;2023-12-14T07:22:06;2.67;;;1.30;;
773;SDS011;370;48.810;9.150;2023-12-14T07:24:33;3.75;;;1.40;;
773;SDS011;370;48.810;9.150;2023-12-14T07:26:59;6.20;;;1.85;;
773;SDS011;370;48.810;9.150;2023-12-14T07:29:26;3.67;;;1.73;;
773;SDS011;370;48.810;9.150;2023-12-14T07:31:54;3.20;;;2.15;;
773;SDS011;370;48.810;9.150;2023-12-14T07:34:21;9.25;;;2.15;;
773;SDS011;370;48.810;9.150;2023-12-14T07:36:49;3.40;;;1.55;;
773;SDS011;370;48.810;9.150;2023-12-14T07:39:16;2.60;;;1.67;;
773;SDS011;370;48.810;9.150;2023-12-14T07:41:43;1.85;;;1.67;;
773;SDS011;370;48.810;9.150;2023-12-14T07:44:10;1.42;;;1.30;;
773;SDS011;370;48.810;9.150;2023-12-14T07:46:37;4.13;;;2.33;;
773;SDS011;370;48.810;9.150;2023-12-14T07:49:07;2.88;;;1.80;;
773;SDS011;370;48.810;9.150;2023-12-14T07:51:34;2.10;;;1.40;;
773;SDS011;370;48.810;9.150;2023-12-14T07:54:01;2.25;;;1.85;;
773;SDS011;370;48.810;9.150;2023-12-14T07:56:29;1.08;;;0.90;;
773;SDS011;370;48.810;9.150;2023-12-14T07:58:57;2.70;;;1.30;;
773;SDS011;370;48.810;9.150;2023-12-14T08:01:24;2.50;;;1.40;;
773;SDS011;370;48.810;9.150;2023-12-14T08:03:51;5.20;;;2.00;;
773;SDS011;370;48.810;9.150;2023-12-14T08:06:19;5.50;;;2.10;;
773;SDS011;370;48.810;9.150;2023-12-14T08:08:45;2.60;;;1.45;;
773;SDS011;370;48.810;9.150;2023-12-14T08:11:12;2.65;;;1.65;;
773;SDS011;370;48.810;9.150;2023-12-14T08:13:39;7.53;;;2.30;;
773;SDS011;370;48.810;9.150;2023-12-14T08:16:06;3.83;;;1.35;;
773;SDS011;370;48.810;9.150;2023-12-14T08:18:33;3.20;;;2.33;;
773;SDS011;370;48.810;9.150;2023-12-14T08:21:00;3.13;;;2.40;;
773;SDS011;370;48.810;9.150;2023-12-14T08:23:29;5.75;;;2.00;;
773;SDS011;370;48.810;9.150;2023-12-14T08:25:55;4.20;;;2.42;;
773;SDS011;370;48.810;9.150;2023-12-14T08:28:22;8.43;;;2.10;;
773;SDS011;370;48.810;9.150;2023-12-14T08:30:49;4.15;;;1.88;;
773;SDS011;370;48.810;9.150;2023-12-14T08:33:16;4.25;;;2.25;;
773;SDS011;370;48.810;9.150;2023-12-14T08:35:42;4.68;;;2.38;;
773;SDS011;370;48.810;9.150;2023-12-14T08:38:09;5.15;;;1.95;;
773;SDS011;370;48.810;9.150;2023-12-14T08:40:38;3.15;;;2.30;;
773;SDS011;370;48.810;9.150;2023-12-14T08:43:05;4.60;;;2.13;;
773;SDS011;370;48.810;9.150;2023-12-14T08:45:32;1.75;;;1.50;;
773;SDS011;370;48.810;9.150;2023-12-14T08:47:59;4.68;;;1.83;;
773;SDS011;370;48.810;9.150;2023-12-14T08:50:26;4.57;;;2.13;;
773;SDS011;370;48.810;9.150;2023-12-14T08:52:52;3.40;;;2.55;;
773;SDS011;370;48.810;9.150;2023-12-14T08:55:19;3.50;;;2.13;;
773;SDS011;370;48.810;9.150;2023-12-14T08:57:48;5.55;;;2.55;;
773;SDS011;370;48.810;9.150;2023-12-14T09:00:15;4.63;;;2.80;;
773;SDS011;370;48.810;9.150;2023-12-14T09:02:42;5.72;;;2.83;;
773;SDS011;370;48.810;9.150;2023-12-14T09:05:11;5.32;;;2.85;;
773;SDS011;370;48.810;9.150;2023-12-14T09:07:38;8.32;;;3.15;;
773;SDS011;370;48.810;9.150;2023-12-14T09:10:05;6.25;;;3.35;;
773;SDS011;370;48.810;9.150;2023-12-14T09:12:32;4.43;;;2.42;;
773;SDS011;370;48.810;9.150;2023-12-14T09:15:01;7.20;;;2.88;;
773;SDS011;370;48.810;9.150;2023-12-14T09:17:29;4.38;;;2.72;;
773;SDS011;370;48.810;9.150;2023-12-14T09:19:58;6.38;;;3.38;;
773;SDS011;370;48.810;9.150;2023-12-14T09:22:24;6.07;;;2.70;;
773;SDS011;370;48.810;9.150;2023-12-14T09:24:52;6.93;;;2.55;;
773;SDS011;370;48.810;9.150;2023-12-14T09:27:18;5.25;;;2.65;;
773;SDS011;370;48.810;9.150;2023-12-14T09:29:45;7.10;;;2.78;;
773;SDS011;370;48.810;9.150;2023-12-14T09:32:13;4.85;;;3.30;;
773;SDS011;370;48.810;9.150;2023-12-14T09:34:42;7.70;;;3.25;;
773;SDS011;370;48.810;9.150;2023-12-14T09:37:09;7.20;;;3.42;;
773;SDS011;370;48.810;9.150;2023-12-14T09:39:36;5.60;;;4.00;;
773;SDS011;370;48.810;9.150;2023-12-14T09:42:03;9.20;;;3.90;;
773;SDS011;370;48.810;9.150;2023-12-14T09:44:31;7.88;;;3.45;;
773;SDS011;370;48.810;9.150;2023-12-14T09:46:58;8.35;;;3.25;;
773;SDS011;370;48.810;9.150;2023-12-14T09:49:27;9.68;;;3.65;;
773;SDS011;370;48.810;9.150;2023-12-14T09:51:55;6.18;;;2.92;;
773;SDS011;370;48.810;9.150;2023-12-14T09:54:22;9.77;;;4.18;;
773;SDS011;370;48.810;9.150;2023-12-14T09:56:48;9.18;;;4.28;;
773;SDS011;370;48.810;9.150;2023-12-14T09:59:17;8.30;;;4.57;;
773;SDS011;370;48.810;9.150;2023-12-14T10:01:44;8.50;;;3.70;;
773;SDS011;370;48.810;9.150;2023-12-14T10:04:12;8.93;;;4.90;;
773;SDS011;370;48.810;9.150;2023-12-14T10:06:42;13.80;;;4.80;;
773;SDS011;370;48.810;9.150;2023-12-14T10:09:10;7.37;;;4.17;;
773;SDS011;370;48.810;9.150;2023-12-14T10:11:39;11.43;;;3.40;;
773;SDS011;370;48.810;9.150;2023-12-14T10:14:17;8.83;;;4.03;;
773;SDS011;370;48.810;9.150;2023-12-14T10:16:45;22.37;;;3.93;;
773;SDS011;370;48.810;9.150;2023-12-14T10:19:13;8.13;;;3.57;;
773;SDS011;370;48.810;9.150;2023-12-14T10:21:39;9.23;;;4.10;;
773;SDS011;370;48.810;9.150;2023-12-14T10:24:08;11.73;;;3.83;;
773;SDS011;370;48.810;9.150;2023-12-14T10:26:35;9.60;;;4.20;;
773;SDS011;370;48.810;9.150;2023-12-14T10:29:01;9.10;;;4.00;;
773;SDS011;370;48.810;9.150;2023-12-14T10:31:29;12.73;;;4.27;;
773;SDS011;370;48.810;9.150;2023-12-14T10:33:56;6.30;;;3.37;;
773;SDS011;370;48.810;9.150;2023-12-14T10:36:24;10.73;;;4.30;;
773;SDS011;370;48.810;9.150;2023-12-14T10:38:53;7.43;;;3.77;;
773;SDS011;370;48.810;9.150;2023-12-14T10:41:23;6.10;;;3.73;;
773;SDS011;370;48.810;9.150;2023-12-14T10:47:13;5.22;;;3.30;;
773;SDS011;370;48.810;9.150;2023-12-14T10:49:40;5.85;;;2.67;;
773;SDS011;370;48.810;9.150;2023-12-14T10:52:08;9.40;;;4.05;;
773;SDS011;370;48.810;9.150;2023-12-14T10:54:37;7.85;;;3.60;;
773;SDS011;370;48.810;9.150;2023-12-14T10:57:05;7.22;;;4.07;;
773;SDS011;370;48.810;9.150;2023-12-14T10:59:33;4.47;;;2.65;;
773;SDS011;370;48.810;9.150;2023-12-14T11:02:00;9.43;;;3.10;;
773;SDS011;370;48.810;9.150;2023-12-14T11:04:45;19.20;;;4.03;;
773;SDS011;370;48.810;9.150;2023-12-14T11:10:13;8.63;;;3.00;;
773;SDS011;370;48.810;9.150;2023-12-14T11:12:50;8.77;;;3.20;;
773;SDS011;370;48.810;9.150;2023-12-14T11:15:21;8.38;;;3.78;;
773;SDS011;370;48.810;9.150;2023-12-14T11:20:47;6.30;;;2.75;;
773;SDS011;370;48.810;9.150;2023-12-14T11:23:15;8.20;;;2.88;;
773;SDS011;370;48.810;9.150;2023-12-14T11:25:45;5.63;;;2.60;;
773;SDS011;370;48.810;9.150;2023-12-14T11:28:14;3.58;;;2.28;;
773;SDS011;370;48.810;9.150;2023-12-14T11:30:43;6.05;;;2.38;;
773;SDS011;370;48.810;9.150;2023-12-14T11:33:10;5.90;;;3.15;;
773;SDS011;370;48.810;9.150;2023-12-14T11:35:37;4.20;;;2.40;;
773;SDS011;370;48.810;9.150;2023-12-14T11:38:04;5.57;;;2.35;;
773;SDS011;370;48.810;9.150;2023-12-14T11:40:37;3.17;;;2.40;;
773;SDS011;370;48.810;9.150;2023-12-14T11:43:06;6.28;;;3.33;;
773;SDS011;370;48.810;9.150;2023-12-14T11:45:34;5.13;;;2.80;;
773;SDS011;370;48.810;9.150;2023-12-14T11:48:01;4.70;;;2.70;;
773;SDS011;370;48.810;9.150;2023-12-14T11:50:30;10.02;;;1.75;;
773;SDS011;370;48.810;9.150;2023-12-14T11:52:58;3.33;;;2.25;;
773;SDS011;370;48.810;9.150;2023-12-14T11:55:25;2.63;;;1.65;;
773;SDS011;370;48.810;9.150;2023-12-14T11:57:52;3.85;;;2.25;;
773;SDS011;370;48.810;9.150;2023-12-14T12:00:24;3.45;;;1.50;;
773;SDS011;370;48.810;9.150;2023-12-14T12:02:52;2.47;;;1.50;;
773;SDS011;370;48.810;9.150;2023-12-14T12:05:35;3.70;;;1.70;;
773;SDS011;370;48.810;9.150;2023-12-14T12:08:03;5.07;;;1.17;;
773;SDS011;370;48.810;9.150;2023-12-14T12:10:30;4.03;;;1.30;;
773;SDS011;370;48.810;9.150;2023-12-14T12:16:20;1.00;;;1.00;;
773;SDS011;370;48.810;9.150;2023-12-14T12:18:47;3.60;;;2.10;;
773;SDS011;370;48.810;9.150;2023-12-14T12:21:15;2.03;;;1.30;;
773;SDS011;370;48.810;9.150;2023-12-14T12:27:04;2.42;;;1.60;;
773;SDS011;370;48.810;9.150;2023-12-14T12:29:32;1.13;;;1.10;;
773;SDS011;370;48.810;9.150;2023-12-14T12:32:00;2.00;;;1.20;;
773;SDS011;370;48.810;9.150;2023-12-14T12:34:27;5.28;;;1.38;;
773;SDS011;370;48.810;9.150;2023-12-14T12:36:54;1.58;;;1.35;;
773;SDS011;370;48.810;9.150;2023-12-14T12:39:22;0.80;;;0.75;;
773;SDS011;370;48.810;9.150;2023-12-14T12:41:49;2.33;;;1.30;;
773;SDS011;370;48.810;9.150;2023-12-14T12:44:16;2.55;;;1.30;;
773;SDS011;370;48.810;9.150;2023-12-14T12:46:43;5.18;;;1.00;;
773;SDS011;370;48.810;9.150;2023-12-14T12:49:11;2.47;;;0.90;;
773;SDS011;370;48.810;9.150;2023-12-14T12:51:38;1.60;;;0.93;;
773;SDS011;370;48.810;9.150;2023-12-14T12:54:04;3.65;;;1.63;;
773;SDS011;370;48.810;9.150;2023-12-14T12:56:31;1.23;;;0.88;;
773;SDS011;370;48.810;9.150;2023-12-14T12:58:59;1.10;;;1.00;;
773;SDS011;370;48.810;9.150;2023-12-14T13:01:25;1.52;;;1.02;;
773;SDS011;370;48.810;9.150;2023-12-14T13:03:53;3.53;;;1.38;;
773;SDS011;370;48.810;9.150;2023-12-14T13:06:23;4.72;;;1.10;;
773;SDS011;370;48.810;9.150;2023-12-14T13:08:50;1.45;;;1.33;;
773;SDS011;370;48.810;9.150;2023-12-14T13:11:17;3.72;;;1.30;;
773;SDS011;370;48.810;9.150;2023-12-14T13:13:43;3.30;;;1.40;;
773;SDS011;370;48.810;9.150;2023-12-14T13:16:09;1.70;;;1.27;;
773;SDS011;370;48.810;9.150;2023-12-14T13:18:38;1.55;;;1.20;;
773;SDS011;370;48.810;9.150;2023-12-14T13:21:05;4.25;;;1.50;;
773;SDS011;370;48.810;9.150;2023-12-14T13:23:33;3.00;;;1.13;;
773;SDS011;370;48.810;9.150;2023-12-14T13:26:00;3.10;;;1.80;;
773;SDS011;370;48.810;9.150;2023-12-14T13:28:27;1.75;;;1.13;;
773;SDS011;370;48.810;9.150;2023-12-14T13:30:54;2.50;;;1.38;;
773;SDS011;370;48.810;9.150;2023-12-14T13:33:21;1.63;;;1.13;;
773;SDS011;370;48.810;9.150;2023-12-14T13:35:48;2.25;;;1.42;;
773;SDS011;370;48.810;9.150;2023-12-14T13:38:14;1.30;;;1.25;;
773;SDS011;370;48.810;9.150;2023-12-14T13:40:43;1.63;;;1.20;;
773;SDS011;370;48.810;9.150;2023-12-14T13:43:10;2.35;;;1.13;;
773;SDS011;370;48.810;9.150;2023-12-14T13:45:36;6.90;;;1.42;;
773;SDS011;370;48.810;9.150;2023-12-14T13:48:04;2.03;;;1.45;;
773;SDS011;370;48.810;9.150;2023-12-14T13:50:32;3.22;;;1.48;;
773;SDS011;370;48.810;9.150;2023-12-14T13:52:59;4.30;;;1.95;;
773;SDS011;370;48.810;9.150;2023-12-14T13:55:26;3.13;;;1.45;;
773;SDS011;370;48.810;9.150;2023-12-14T13:57:55;3.95;;;1.77;;
773;SDS011;370;48.810;9.150;2023-12-14T14:00:23;2.75;;;1.60;;
773;SDS011;370;48.810;9.150;2023-12-14T14:02:49;5.72;;;1.70;;
773;SDS011;370;48.810;9.150;2023-12-14T14:05:16;3.45;;;1.75;;
773;SDS011;370;48.810;9.150;2023-12-14T14:07:43;6.45;;;2.55;;
773;SDS011;370;48.810;9.150;2023-12-14T14:10:10;4.63;;;2.08;;
773;SDS011;370;48.810;9.150;2023-12-14T14:12:37;3.95;;;2.00;;
773;SDS011;370;48.810;9.150;2023-12-14T14:15:06;4.90;;;1.92;;
773;SDS011;370;48.810;9.150;2023-12-14T14:17:33;6.15;;;2.00;;
773;SDS011;370;48.810;9.150;2023-12-14T14:20:00;5.47;;;3.35;;
773;SDS011;370;48.810;9.150;2023-12-14T14:22:27;7.20;;;1.90;;
773;SDS011;370;48.810;9.150;2023-12-14T14:24:54;3.88;;;2.28;;
773;SDS011;370;48.810;9.150;2023-12-14T14:27:21;14.88;;;3.42;;
773;SDS011;370;48.810;9.150;2023-12-14T14:29:49;2.88;;;1.70;;
773;SDS011;370;48.810;9.150;2023-12-14T14:32:20;4.50;;;2.85;;
773;SDS011;370;48.810;9.150;2023-12-14T14:34:46;6.82;;;2.47;;
773;SDS011;370;48.810;9.150;2023-12-14T14:37:13;8.68;;;3.08;;
773;SDS011;370;48.810;9.150;2023-12-14T14:39:40;12.45;;;3.83;;
773;SDS011;370;48.810;9.150;2023-12-14T14:42:08;7.15;;;2.88;;
773;SDS011;370;48.810;9.150;2023-12-14T14:44:35;8.35;;;2.25;;
773;SDS011;370;48.810;9.150;2023-12-14T14:47:02;6.43;;;2.97;;
773;SDS011;370;48.810;9.150;2023-12-14T14:49:30;5.72;;;2.67;;
773;SDS011;370;48.810;9.150;2023-12-14T14:51:57;6.95;;;3.92;;
773;SDS011;370;48.810;9.150;2023-12-14T14:54:24;8.80;;;3.55;;
773;SDS011;370;48.810;9.150;2023-12-14T14:56:51;9.82;;;3.40;;
773;SDS011;370;48.810;9.150;2023-12-14T14:59:17;16.60;;;3.65;;
773;SDS011;370;48.810;9.150;2023-12-14T15:01:44;5.32;;;2.33;;
773;SDS011;370;48.810;9.150;2023-12-14T15:04:12;5.70;;;3.22;;
773;SDS011;370;48.810;9.150;2023-12-14T15:06:40;6.75;;;2.65;;
773;SDS011;370;48.810;9.150;2023-12-14T15:09:07;6.38;;;3.28;;
773;SDS011;370;48.810;9.150;2023-12-14T15:11:34;6.50;;;3.55;;
773;SDS011;370;48.810;9.150;2023-12-14T15:14:00;5.82;;;2.72;;
773;SDS011;370;48.810;9.150;2023-12-14T15:16:27;9.35;;;3.47;;
773;SDS011;370;48.810;9.150;2023-12-14T15:18:54;5.45;;;3.30;;
773;SDS011;370;48.810;9.150;2023-12-14T15:21:21;7.93;;;3.63;;
773;SDS011;370;48.810;9.150;2023-12-14T15:23:49;13.07;;;4.18;;
773;SDS011;370;48.810;9.150;2023-12-14T15:26:15;14.38;;;3.65;;
773;SDS011;370;48.810;9.150;2023-12-14T15:28:42;8.90;;;4.03;;
773;SDS011;370;48.810;9.150;2023-12-14T15:31:09;8.38;;;5.05;;
773;SDS011;370;48.810;9.150;2023-12-14T15:33:36;6.65;;;2.97;;
773;SDS011;370;48.810;9.150;2023-12-14T15:36:03;8.02;;;3.42;;
773;SDS011;370;48.810;9.150;2023-12-14T15:38:30;11.60;;;3.17;;
773;SDS011;370;48.810;9.150;2023-12-14T15:40:59;7.15;;;3.17;;
773;SDS011;370;48.810;9.150;2023-12-14T15:43:25;9.90;;;3.35;;
773;SDS011;370;48.810;9.150;2023-12-14T15:45:52;8.80;;;3.58;;
773;SDS011;370;48.810;9.150;2023-12-14T15:48:19;6.55;;;2.95;;
773;SDS011;370;48.810;9.150;2023-12-14T15:50:45;9.15;;;3.38;;
773;SDS011;370;48.810;9.150;2023-12-14T15:53:12;8.45;;;4.65;;
773;SDS011;370;48.810;9.150;2023-12-14T15:59:02;6.20;;;2.92;;
773;SDS011;370;48.810;9.150;2023-12-14T16:01:32;10.45;;;3.75;;
773;SDS011;370;48.810;9.150;2023-12-14T16:04:01;11.60;;;3.50;;
773;SDS011;370;48.810;9.150;2023-12-14T16:06:28;9.02;;;3.40;;
773;SDS011;370;48.810;9.150;2023-12-14T16:08:55;11.93;;;4.60;;